createdAt,value
2023-05-05T00:08:09.115Z,67.44
2023-05-05T00:18:30.568Z,67.57
2023-05-05T00:28:52.302Z,68.01
2023-05-05T00:39:14.094Z,70.55
2023-05-05T00:49:35.914Z,68.39
2023-05-05T00:59:58.769Z,71.19
2023-05-05T01:10:32.944Z,69.46
2023-05-05T01:21:21.082Z,70.15
2023-05-05T01:31:52.027Z,69.37
2023-05-05T01:42:15.013Z,70.02
2023-05-05T01:52:37.576Z,69.54
2023-05-05T02:02:59.878Z,69.96
2023-05-05T02:13:23.133Z,69.80
2023-05-05T02:23:46.268Z,70.68
2023-05-05T02:34:07.980Z,71.01
2023-05-05T02:44:31.770Z,70.75
2023-05-05T02:54:53.415Z,71.18
2023-05-05T03:05:25.222Z,71.07
2023-05-05T03:15:48.434Z,74.74
2023-05-05T03:26:09.786Z,71.23
2023-05-05T03:36:31.904Z,71.38
2023-05-05T03:46:53.363Z,72.29
2023-05-05T03:57:14.731Z,70.68
2023-05-05T04:07:36.108Z,70.50
2023-05-05T04:17:57.671Z,71.03
2023-05-05T04:28:21.614Z,70.69
2023-05-05T04:38:43.467Z,71.10
2023-05-05T04:49:05.853Z,70.55
2023-05-05T04:59:27.258Z,71.12
2023-05-05T05:09:48.663Z,70.87
2023-05-05T05:20:10.486Z,70.78
2023-05-05T05:30:32.858Z,70.23
2023-05-05T05:40:54.538Z,68.49
2023-05-05T05:51:15.971Z,69.02
2023-05-05T06:01:37.364Z,68.85
2023-05-05T06:11:58.721Z,68.28
2023-05-05T06:22:20.104Z,68.99
2023-05-05T06:32:41.515Z,70.86
2023-05-05T06:43:02.905Z,73.54
2023-05-05T06:53:24.315Z,79.11
2023-05-05T07:03:45.769Z,80.14
2023-05-05T07:14:07.156Z,81.48
2023-05-05T07:24:28.584Z,82.30
2023-05-05T07:34:49.915Z,82.44
2023-05-05T07:45:11.280Z,84.09
2023-05-05T07:55:32.655Z,82.60
2023-05-05T08:05:54.503Z,84.69
2023-05-05T08:16:16.056Z,90.60
2023-05-05T08:26:37.528Z,84.22
2023-05-05T08:36:58.948Z,85.63
2023-05-05T08:47:20.497Z,85.53
2023-05-05T08:57:52.420Z,86.75
2023-05-05T09:08:14.167Z,82.19
2023-05-05T09:18:40.973Z,82.06
2023-05-05T09:29:03.247Z,80.80
2023-05-05T09:39:24.623Z,77.18
2023-05-05T09:49:56.317Z,72.88
2023-05-05T10:00:17.837Z,79.78
2023-05-05T10:10:46.434Z,72.67
2023-05-05T10:21:08.456Z,71.38
2023-05-05T10:31:33.597Z,73.76
2023-05-05T10:41:54.981Z,70.63
2023-05-05T10:52:19.348Z,66.56
2023-05-05T11:02:41.871Z,68.80
2023-05-05T11:13:03.398Z,68.73
2023-05-05T11:23:25.586Z,70.54
2023-05-05T11:33:47.039Z,67.08
2023-05-05T11:44:11.581Z,66.72
2023-05-05T11:54:34.409Z,65.83
2023-05-05T12:04:56.578Z,66.46
2023-05-05T12:15:27.437Z,66.86
2023-05-05T12:25:49.102Z,68.43
2023-05-05T12:36:10.691Z,68.55
2023-05-05T12:46:44.141Z,65.85
2023-05-05T12:57:11.747Z,67.20
2023-05-05T13:07:33.120Z,65.79
2023-05-05T13:18:01.557Z,67.25
2023-05-05T13:28:23.137Z,66.80
2023-05-05T13:38:44.490Z,67.43
2023-05-05T13:49:05.876Z,66.79
2023-05-05T13:59:27.507Z,66.75
2023-05-05T14:09:48.877Z,65.94
2023-05-05T14:20:10.557Z,66.46
2023-05-05T14:30:31.938Z,67.29
2023-05-05T14:40:53.293Z,68.71
2023-05-05T14:51:15.928Z,67.39
2023-05-05T15:01:37.475Z,68.08
2023-05-05T15:11:58.833Z,67.85
2023-05-05T15:22:20.334Z,68.38
2023-05-05T15:32:41.972Z,68.77
2023-05-05T15:43:03.442Z,69.39
2023-05-05T15:53:26.670Z,73.86
2023-05-05T16:03:48.076Z,75.26
2023-05-05T16:14:09.505Z,78.38
2023-05-05T16:24:30.953Z,80.01
2023-05-05T16:34:52.332Z,82.77
2023-05-05T16:45:13.719Z,82.63
2023-05-05T16:55:35.134Z,83.06
2023-05-05T17:05:56.562Z,84.04
2023-05-05T17:16:18.110Z,84.87
2023-05-05T17:26:40.463Z,95.69
2023-05-05T17:37:02.069Z,90.08
2023-05-05T17:47:25.384Z,93.21
2023-05-05T17:57:47.399Z,91.87
2023-05-05T18:08:08.795Z,93.23
2023-05-05T18:18:30.217Z,91.22
2023-05-05T18:28:51.839Z,92.39
2023-05-05T18:39:13.908Z,96.44
2023-05-05T18:49:35.260Z,90.79
2023-05-05T18:59:56.749Z,93.92
2023-05-05T19:10:18.695Z,93.50
2023-05-05T19:20:42.838Z,92.15
2023-05-05T19:31:04.204Z,88.98
2023-05-05T19:41:26.210Z,89.59
2023-05-05T19:51:49.806Z,88.35
2023-05-05T20:02:12.158Z,88.38
2023-05-05T20:12:34.147Z,87.22
2023-05-05T20:22:55.574Z,88.58
2023-05-05T20:33:17.024Z,90.57
2023-05-05T20:43:38.952Z,90.46
2023-05-05T20:54:00.716Z,90.09
2023-05-05T21:04:22.080Z,88.75
2023-05-05T21:14:44.576Z,90.05
2023-05-05T21:25:13.177Z,87.22
2023-05-05T21:35:34.629Z,90.20
2023-05-05T21:45:59.657Z,89.08
2023-05-05T21:56:21.021Z,88.96
2023-05-05T22:06:42.391Z,88.81
2023-05-05T22:17:03.793Z,89.46
2023-05-05T22:27:25.325Z,90.33
2023-05-05T22:37:46.770Z,94.74
2023-05-05T22:48:08.161Z,90.41
2023-05-05T22:58:29.562Z,90.09
2023-05-05T23:08:50.920Z,89.97
2023-05-05T23:19:12.527Z,89.48
2023-05-05T23:29:33.948Z,94.84
2023-05-05T23:39:56.137Z,90.50
2023-05-05T23:50:17.529Z,88.17
